createdAt,value
2022-12-01T00:00:18.428Z,0.00
2022-12-01T00:01:18.363Z,0.00
2022-12-01T00:02:18.609Z,0.00
2022-12-01T00:03:18.686Z,0.00
2022-12-01T00:04:19.614Z,0.00
2022-12-01T00:05:18.390Z,0.00
2022-12-01T00:06:19.334Z,0.00
2022-12-01T00:07:18.336Z,0.00
2022-12-01T00:08:19.091Z,0.00
2022-12-01T00:09:20.157Z,0.00
2022-12-01T00:10:18.634Z,0.00
2022-12-01T00:11:18.359Z,0.00
2022-12-01T00:12:18.377Z,0.00
2022-12-01T00:13:18.901Z,0.00
2022-12-01T00:14:18.255Z,0.00
2022-12-01T00:15:18.366Z,0.00
2022-12-01T00:16:18.298Z,0.00
2022-12-01T00:17:18.241Z,0.00
2022-12-01T00:18:18.883Z,0.00
2022-12-01T00:19:18.241Z,0.00
2022-12-01T00:20:18.138Z,0.00
2022-12-01T00:21:18.151Z,0.00
2022-12-01T00:22:18.156Z,0.00
2022-12-01T00:23:18.187Z,0.00
2022-12-01T00:24:18.246Z,0.00
2022-12-01T00:25:18.225Z,0.00
2022-12-01T00:26:18.077Z,0.00
2022-12-01T00:27:19.173Z,0.00
2022-12-01T00:28:18.103Z,0.00
2022-12-01T00:29:18.219Z,0.00
2022-12-01T00:30:18.064Z,0.00
2022-12-01T00:31:18.641Z,0.00
2022-12-01T00:32:18.139Z,0.00
2022-12-01T00:33:18.082Z,0.00
2022-12-01T00:34:17.979Z,0.00
2022-12-01T00:35:18.091Z,0.00
2022-12-01T00:36:18.039Z,0.00
2022-12-01T00:37:18.010Z,0.00
2022-12-01T00:38:17.891Z,0.00
2022-12-01T00:39:18.001Z,0.00
2022-12-01T00:40:17.902Z,0.00
2022-12-01T00:41:17.916Z,0.00
2022-12-01T00:42:17.919Z,0.00
2022-12-01T00:43:18.047Z,0.00
2022-12-01T00:44:17.874Z,0.00
2022-12-01T00:45:17.942Z,0.00
2022-12-01T00:46:17.886Z,0.00
2022-12-01T00:47:17.858Z,0.00
2022-12-01T00:48:17.803Z,0.00
2022-12-01T00:49:17.878Z,0.00
2022-12-01T00:50:17.883Z,0.00
2022-12-01T00:51:17.816Z,0.00
2022-12-01T00:52:17.786Z,0.00
2022-12-01T00:53:17.899Z,0.00
2022-12-01T00:54:17.734Z,0.00
2022-12-01T00:55:17.760Z,0.00
2022-12-01T00:56:17.716Z,0.00
2022-12-01T00:57:17.720Z,0.00
2022-12-01T00:58:17.700Z,0.00
2022-12-01T00:59:17.709Z,0.00
2022-12-01T01:00:17.789Z,0.00
2022-12-01T01:01:17.814Z,0.00
2022-12-01T01:02:17.846Z,0.00
2022-12-01T01:03:17.706Z,0.00
2022-12-01T01:04:17.678Z,0.00
2022-12-01T01:05:17.716Z,0.00
2022-12-01T01:06:17.689Z,0.00
2022-12-01T01:07:17.676Z,0.00
2022-12-01T01:08:17.628Z,0.00
2022-12-01T01:09:17.650Z,0.00
2022-12-01T01:10:17.618Z,0.00
2022-12-01T01:11:17.627Z,0.00
2022-12-01T01:12:17.731Z,0.00
2022-12-01T01:13:17.584Z,0.00
2022-12-01T01:14:17.620Z,0.00
2022-12-01T01:15:17.627Z,0.00
2022-12-01T01:16:17.606Z,0.00
2022-12-01T01:17:17.566Z,0.00
2022-12-01T01:18:17.598Z,0.00
2022-12-01T01:19:17.630Z,0.00
2022-12-01T01:21:44.245Z,0.00
2022-12-01T01:21:50.080Z,0.00
2022-12-01T01:22:50.060Z,0.00
2022-12-01T01:23:50.141Z,0.00
2022-12-01T01:24:50.114Z,0.00
2022-12-01T01:25:50.008Z,0.00
2022-12-01T01:26:50.029Z,0.00
2022-12-01T01:27:50.021Z,0.00
2022-12-01T01:28:50.026Z,0.00
2022-12-01T01:29:50.372Z,0.00
2022-12-01T01:30:49.988Z,0.00
2022-12-01T01:31:49.948Z,0.00
2022-12-01T01:32:50.050Z,0.00
2022-12-01T01:33:49.959Z,0.00
2022-12-01T01:34:49.962Z,0.00
2022-12-01T01:35:50.014Z,0.00
2022-12-01T01:36:50.124Z,0.00
2022-12-01T01:37:49.896Z,0.00
2022-12-01T01:38:49.899Z,0.00
2022-12-01T01:39:50.150Z,0.00
2022-12-01T01:40:49.857Z,0.00
2022-12-01T01:41:49.921Z,0.00
2022-12-01T01:42:49.817Z,0.00
2022-12-01T01:43:49.825Z,0.00
2022-12-01T01:44:49.869Z,0.00
2022-12-01T01:45:49.890Z,0.00
2022-12-01T01:46:49.898Z,0.00
2022-12-01T01:47:49.771Z,0.00
2022-12-01T01:48:49.766Z,0.00
2022-12-01T01:49:49.997Z,0.00
2022-12-01T01:50:49.781Z,0.00
2022-12-01T01:51:49.787Z,0.00
2022-12-01T01:52:49.783Z,0.00
2022-12-01T01:53:49.700Z,0.00
2022-12-01T01:54:49.739Z,0.00
2022-12-01T01:55:49.721Z,0.00
2022-12-01T01:56:49.832Z,0.00
2022-12-01T01:57:49.751Z,0.00
2022-12-01T01:58:49.684Z,0.00
2022-12-01T01:59:49.796Z,0.00
2022-12-01T02:00:49.751Z,0.00
2022-12-01T02:01:49.708Z,0.00
2022-12-01T02:02:51.394Z,0.00
2022-12-01T02:03:49.655Z,0.00
2022-12-01T02:04:49.685Z,0.00
2022-12-01T02:05:49.584Z,0.00
2022-12-01T02:06:49.612Z,0.00
2022-12-01T02:07:49.624Z,0.00
2022-12-01T02:08:49.788Z,0.00
2022-12-01T02:09:49.958Z,0.00
2022-12-01T02:10:49.627Z,0.00
2022-12-01T02:11:49.636Z,0.00
2022-12-01T02:12:49.555Z,0.00
2022-12-01T02:13:49.640Z,0.00
2022-12-01T02:14:49.877Z,0.00
2022-12-01T02:15:49.573Z,0.00
2022-12-01T02:16:49.623Z,0.00
2022-12-01T02:17:49.576Z,0.00
2022-12-01T02:18:49.499Z,0.00
2022-12-01T02:19:49.740Z,0.00
2022-12-01T02:20:51.349Z,0.00
2022-12-01T02:21:49.515Z,0.00
2022-12-01T02:22:53.690Z,0.00
2022-12-01T02:23:49.416Z,0.00
2022-12-01T02:24:49.411Z,0.00
2022-12-01T02:25:49.418Z,0.00
2022-12-01T02:26:49.848Z,0.00
2022-12-01T02:27:49.427Z,0.00
2022-12-01T02:28:49.427Z,0.00
2022-12-01T02:29:49.678Z,0.00
2022-12-01T02:30:49.373Z,0.00
2022-12-01T02:31:49.360Z,0.00
2022-12-01T02:32:50.308Z,0.00
2022-12-01T02:33:49.388Z,0.00
2022-12-01T02:34:49.338Z,0.00
2022-12-01T02:35:49.291Z,0.00
2022-12-01T02:36:49.274Z,0.00
2022-12-01T02:37:49.294Z,0.00
2022-12-01T02:38:49.309Z,0.00
2022-12-01T02:39:49.399Z,0.00
2022-12-01T02:40:49.225Z,0.00
2022-12-01T02:41:49.317Z,0.00
2022-12-01T02:42:49.234Z,0.00
2022-12-01T02:43:49.241Z,0.00
2022-12-01T02:44:49.444Z,0.00
2022-12-01T02:45:49.315Z,0.00
2022-12-01T02:46:49.152Z,0.00
2022-12-01T02:47:49.158Z,0.00
2022-12-01T02:48:49.169Z,0.00
2022-12-01T02:49:49.469Z,0.00
2022-12-01T02:50:49.185Z,0.00
2022-12-01T02:51:49.200Z,0.00
2022-12-01T02:52:49.197Z,0.00
2022-12-01T02:53:49.105Z,0.00
2022-12-01T02:54:49.102Z,0.00
2022-12-01T02:55:49.109Z,0.00
2022-12-01T02:56:49.115Z,0.00
2022-12-01T02:57:49.042Z,0.00
2022-12-01T02:58:49.034Z,0.00
2022-12-01T02:59:49.258Z,0.00
2022-12-01T03:00:49.046Z,0.00
2022-12-01T03:01:49.071Z,0.00
2022-12-01T03:02:49.432Z,0.00
2022-12-01T03:03:48.965Z,0.00
2022-12-01T03:04:48.909Z,0.00
2022-12-01T03:05:48.967Z,0.00
2022-12-01T03:06:48.991Z,0.00
2022-12-01T03:07:49.834Z,0.00
2022-12-01T03:08:48.996Z,0.00
2022-12-01T03:09:49.387Z,0.00
2022-12-01T03:10:48.950Z,0.00
2022-12-01T03:11:48.962Z,0.00
2022-12-01T03:12:49.579Z,0.00
2022-12-01T03:13:48.859Z,0.00
2022-12-01T03:14:48.938Z,0.00
2022-12-01T03:15:48.952Z,0.00
2022-12-01T03:16:48.789Z,0.00
2022-12-01T03:17:48.851Z,0.00
2022-12-01T03:18:48.801Z,0.00
2022-12-01T03:19:49.126Z,0.00
2022-12-01T03:20:48.818Z,0.00
2022-12-01T03:21:48.724Z,0.00
2022-12-01T03:22:48.818Z,0.00
2022-12-01T03:23:48.900Z,0.00
2022-12-01T03:24:48.791Z,0.00
2022-12-01T03:25:48.737Z,0.00
2022-12-01T03:26:48.761Z,0.00
2022-12-01T03:28:13.828Z,0.00
2022-12-01T03:28:48.662Z,0.00
2022-12-01T03:29:49.540Z,0.00
2022-12-01T03:30:48.841Z,0.00
2022-12-01T03:31:48.856Z,0.00
2022-12-01T03:32:48.739Z,0.00
2022-12-01T03:33:48.591Z,0.00
2022-12-01T03:34:48.598Z,0.00
2022-12-01T03:35:48.606Z,0.00
2022-12-01T03:36:48.678Z,0.00
2022-12-01T03:37:48.568Z,0.00
2022-12-01T03:38:48.702Z,0.00
2022-12-01T03:39:48.786Z,0.00
2022-12-01T03:40:48.541Z,0.00
2022-12-01T03:41:48.601Z,0.00
2022-12-01T03:42:48.620Z,0.00
2022-12-01T03:43:48.611Z,0.00
2022-12-01T03:44:48.572Z,0.00
2022-12-01T03:45:48.564Z,0.00
2022-12-01T03:46:48.507Z,0.00
2022-12-01T03:47:48.689Z,0.00
2022-12-01T03:48:48.546Z,0.00
2022-12-01T03:49:48.822Z,0.00
2022-12-01T03:50:48.564Z,0.00
2022-12-01T03:51:48.467Z,0.00
2022-12-01T03:52:48.475Z,0.00
2022-12-01T03:53:48.479Z,0.00
2022-12-01T03:54:48.436Z,0.00
2022-12-01T03:55:48.504Z,0.00
2022-12-01T03:56:48.536Z,0.00
2022-12-01T03:57:48.400Z,0.00
2022-12-01T03:58:48.413Z,0.00
2022-12-01T03:59:48.785Z,0.00
2022-12-01T04:00:48.322Z,0.00
2022-12-01T04:01:48.428Z,0.00
2022-12-01T04:02:48.605Z,0.00
2022-12-01T04:03:48.453Z,0.00
2022-12-01T04:04:48.346Z,0.00
2022-12-01T04:05:48.354Z,0.00
2022-12-01T04:06:48.362Z,0.00
2022-12-01T04:07:48.394Z,0.00
2022-12-01T04:08:48.379Z,0.00
2022-12-01T04:09:48.680Z,0.00
2022-12-01T04:10:48.292Z,0.00
2022-12-01T04:11:48.358Z,0.00
2022-12-01T04:12:48.313Z,0.00
2022-12-01T04:13:48.317Z,0.00
2022-12-01T04:14:48.416Z,0.00
2022-12-01T04:15:48.255Z,0.00
2022-12-01T04:16:48.329Z,0.00
2022-12-01T04:17:48.166Z,1.00
2022-12-01T04:18:48.205Z,1.00
2022-12-01T04:19:48.454Z,1.00
2022-12-01T04:20:48.114Z,1.00
2022-12-01T04:21:48.115Z,1.00
2022-12-01T04:22:48.134Z,1.00
2022-12-01T04:23:48.441Z,1.00
2022-12-01T04:24:49.166Z,1.00
2022-12-01T04:25:48.155Z,1.00
2022-12-01T04:26:48.115Z,1.00
2022-12-01T04:27:48.057Z,1.00
2022-12-01T04:28:48.058Z,1.00
2022-12-01T04:29:48.717Z,1.00
2022-12-01T04:30:48.140Z,1.00
2022-12-01T04:31:48.071Z,1.00
2022-12-01T04:32:48.199Z,1.00
2022-12-01T04:33:47.963Z,1.00
2022-12-01T04:34:48.914Z,1.00
2022-12-01T04:35:49.027Z,1.00
2022-12-01T04:36:48.018Z,1.00
2022-12-01T04:37:48.018Z,1.00
2022-12-01T04:38:48.547Z,1.00
2022-12-01T04:39:48.391Z,1.00
2022-12-01T04:40:47.945Z,1.00
2022-12-01T04:41:48.054Z,1.00
2022-12-01T04:42:47.955Z,1.00
2022-12-01T04:43:47.968Z,1.00
2022-12-01T04:44:47.980Z,1.00
2022-12-01T04:45:48.178Z,1.00
2022-12-01T04:46:48.930Z,1.00
2022-12-01T04:47:47.883Z,1.00
2022-12-01T04:48:47.788Z,1.00
2022-12-01T04:49:48.277Z,1.00
2022-12-01T04:50:47.917Z,1.00
2022-12-01T04:51:47.809Z,1.00
2022-12-01T04:52:48.324Z,1.00
2022-12-01T04:53:47.826Z,1.00
2022-12-01T04:54:47.814Z,1.00
2022-12-01T04:55:47.837Z,1.00
2022-12-01T04:56:47.946Z,1.00
2022-12-01T04:57:47.846Z,1.00
2022-12-01T04:58:48.539Z,1.00
2022-12-01T04:59:48.163Z,1.00
2022-12-01T05:00:47.778Z,1.00
2022-12-01T05:01:47.796Z,1.00
2022-12-01T05:02:47.787Z,1.00
2022-12-01T05:03:47.682Z,1.00
2022-12-01T05:04:47.681Z,1.00
2022-12-01T05:05:47.694Z,1.00
2022-12-01T05:06:47.604Z,1.00
2022-12-01T05:07:47.653Z,1.00
2022-12-01T05:08:47.599Z,1.00
2022-12-01T05:09:47.959Z,1.00
2022-12-01T05:10:47.629Z,1.00
2022-12-01T05:11:47.515Z,1.00
2022-12-01T05:12:47.533Z,1.00
2022-12-01T05:13:47.534Z,1.00
2022-12-01T05:14:49.398Z,1.00
2022-12-01T05:15:47.552Z,1.00
2022-12-01T05:16:47.678Z,1.00
2022-12-01T05:17:47.584Z,1.00
2022-12-01T05:18:47.562Z,1.00
2022-12-01T05:19:47.852Z,1.00
2022-12-01T05:20:47.481Z,1.00
2022-12-01T05:21:47.491Z,1.00
2022-12-01T05:23:04.805Z,1.00
2022-12-01T05:23:47.407Z,1.00
2022-12-01T05:24:47.528Z,1.00
2022-12-01T05:25:47.427Z,1.00
2022-12-01T05:26:47.839Z,1.00
2022-12-01T05:27:47.431Z,1.00
2022-12-01T05:28:47.330Z,1.00
2022-12-01T05:29:47.776Z,1.00
2022-12-01T05:30:47.354Z,1.00
2022-12-01T05:31:47.481Z,1.00
2022-12-01T05:32:47.375Z,1.00
2022-12-01T05:33:47.377Z,1.00
2022-12-01T05:34:47.282Z,1.00
2022-12-01T05:35:47.268Z,1.00
2022-12-01T05:36:47.276Z,1.00
2022-12-01T05:37:47.285Z,1.00
2022-12-01T05:38:47.395Z,1.00
2022-12-01T05:39:47.549Z,1.00
2022-12-01T05:40:47.302Z,1.00
2022-12-01T05:41:47.207Z,1.00
2022-12-01T05:42:47.220Z,1.00
2022-12-01T05:43:47.227Z,1.00
2022-12-01T05:44:47.230Z,1.00
2022-12-01T05:45:47.303Z,1.00
2022-12-01T05:46:48.090Z,1.00
2022-12-01T05:47:47.153Z,1.00
2022-12-01T05:48:47.152Z,1.00
2022-12-01T05:49:47.572Z,1.00
2022-12-01T05:50:47.172Z,1.00
2022-12-01T05:51:47.175Z,1.00
2022-12-01T05:52:47.091Z,1.00
2022-12-01T05:53:47.096Z,1.00
2022-12-01T05:54:47.098Z,1.00
2022-12-01T05:55:47.113Z,1.00
2022-12-01T05:56:47.120Z,1.00
2022-12-01T05:57:47.021Z,1.00
2022-12-01T05:58:47.028Z,1.00
2022-12-01T05:59:47.541Z,1.00
2022-12-01T06:00:47.033Z,1.00
2022-12-01T06:01:47.086Z,1.00
2022-12-01T06:02:47.044Z,1.00
2022-12-01T06:03:47.088Z,1.00
2022-12-01T06:04:46.970Z,1.00
2022-12-01T06:05:46.975Z,1.00
2022-12-01T06:06:46.991Z,1.00
2022-12-01T06:07:46.997Z,1.00
2022-12-01T06:08:46.989Z,1.00
2022-12-01T06:09:47.130Z,1.00
2022-12-01T06:10:46.902Z,1.00
2022-12-01T06:11:51.222Z,1.00
2022-12-01T06:12:46.919Z,1.00
2022-12-01T06:13:47.963Z,1.00
2022-12-01T06:14:46.956Z,1.00
2022-12-01T06:15:46.832Z,1.00
2022-12-01T06:16:46.857Z,1.00
2022-12-01T06:17:46.846Z,1.00
2022-12-01T06:18:46.865Z,1.00
2022-12-01T06:19:47.124Z,1.00
2022-12-01T06:20:46.933Z,1.00
2022-12-01T06:21:46.899Z,1.00
2022-12-01T06:22:46.773Z,1.00
2022-12-01T06:23:46.769Z,1.00
2022-12-01T06:24:46.777Z,1.00
2022-12-01T06:25:46.799Z,1.00
2022-12-01T06:26:46.792Z,1.00
2022-12-01T06:27:46.697Z,1.00
2022-12-01T06:28:46.719Z,1.00
2022-12-01T06:29:46.707Z,1.00
2022-12-01T06:30:47.491Z,1.00
2022-12-01T06:31:46.804Z,1.00
2022-12-01T06:32:46.826Z,1.00
2022-12-01T06:33:46.632Z,1.00
2022-12-01T06:34:46.759Z,1.00
2022-12-01T06:35:46.659Z,1.00
2022-12-01T06:36:46.673Z,1.00
2022-12-01T06:37:46.683Z,1.00
2022-12-01T06:38:46.624Z,1.00
2022-12-01T06:39:46.829Z,1.00
2022-12-01T06:40:46.534Z,1.00
2022-12-01T06:41:46.588Z,1.00
2022-12-01T06:42:46.656Z,1.00
2022-12-01T06:43:46.611Z,1.00
2022-12-01T06:44:46.607Z,1.00
2022-12-01T06:45:46.575Z,1.00
2022-12-01T06:46:46.538Z,1.00
2022-12-01T06:47:46.478Z,1.00
2022-12-01T06:48:46.515Z,1.00
2022-12-01T06:49:46.526Z,1.00
2022-12-01T06:50:46.497Z,1.00
2022-12-01T06:51:46.405Z,1.00
2022-12-01T06:52:46.460Z,1.00
2022-12-01T06:53:46.424Z,1.00
2022-12-01T06:54:46.431Z,1.00
2022-12-01T06:55:46.426Z,1.00
2022-12-01T06:56:46.437Z,1.00
2022-12-01T06:57:46.387Z,1.00
2022-12-01T06:58:46.397Z,1.00
2022-12-01T06:59:46.539Z,1.00
2022-12-01T07:00:51.791Z,1.00
2022-12-01T07:01:46.447Z,1.00
2022-12-01T07:02:46.468Z,1.00
2022-12-01T07:03:46.286Z,1.00
2022-12-01T07:04:46.357Z,1.00
2022-12-01T07:05:46.456Z,1.00
2022-12-01T07:06:46.358Z,1.00
2022-12-01T07:07:46.417Z,1.00
2022-12-01T07:08:46.317Z,1.00
2022-12-01T07:09:46.647Z,1.00
2022-12-01T07:10:46.392Z,1.00
2022-12-01T07:11:46.232Z,1.00
2022-12-01T07:12:46.286Z,1.00
2022-12-01T07:13:46.354Z,1.00
2022-12-01T07:14:46.305Z,1.00
2022-12-01T07:15:47.232Z,1.00
2022-12-01T07:16:46.175Z,1.00
2022-12-01T07:17:46.217Z,1.00
2022-12-01T07:18:46.235Z,1.00
2022-12-01T07:19:46.319Z,1.00
2022-12-01T07:20:46.192Z,1.00
2022-12-01T07:21:46.152Z,1.00
2022-12-01T07:22:46.160Z,1.00
2022-12-01T07:23:46.164Z,1.00
2022-12-01T07:24:46.174Z,1.00
2022-12-01T07:25:46.088Z,1.00
2022-12-01T07:26:46.090Z,1.00
2022-12-01T07:27:46.102Z,1.00
2022-12-01T07:28:46.041Z,1.00
2022-12-01T07:29:46.320Z,1.00
2022-12-01T07:30:46.149Z,1.00
2022-12-01T07:31:46.049Z,1.00
2022-12-01T07:32:46.419Z,1.00
2022-12-01T07:33:46.018Z,1.00
2022-12-01T07:34:46.138Z,1.00
2022-12-01T07:35:45.972Z,1.00
2022-12-01T07:36:46.158Z,0.00
2022-12-01T07:37:46.048Z,0.00
2022-12-01T07:38:46.167Z,0.00
2022-12-01T07:39:46.193Z,0.00
2022-12-01T07:40:46.004Z,0.00
2022-12-01T07:41:46.089Z,0.00
2022-12-01T07:42:46.104Z,0.00
2022-12-01T07:43:46.913Z,0.00
2022-12-01T07:44:46.111Z,0.00
2022-12-01T07:45:46.080Z,0.00
2022-12-01T07:46:46.056Z,0.00
2022-12-01T07:47:46.027Z,0.00
2022-12-01T07:48:45.914Z,0.00
2022-12-01T07:49:45.944Z,0.00
2022-12-01T07:50:45.941Z,0.00
2022-12-01T07:51:45.946Z,0.00
2022-12-01T07:52:46.017Z,0.00
2022-12-01T07:53:46.683Z,0.00
2022-12-01T07:54:46.002Z,0.00
2022-12-01T07:55:45.874Z,0.00
2022-12-01T07:56:45.932Z,0.00
2022-12-01T07:57:45.886Z,0.00
2022-12-01T07:58:45.872Z,0.00
2022-12-01T07:59:45.815Z,0.00
2022-12-01T08:00:45.835Z,0.00
2022-12-01T08:01:45.869Z,0.00
2022-12-01T08:02:45.962Z,0.00
2022-12-01T08:03:45.752Z,0.00
2022-12-01T08:04:45.824Z,0.00
2022-12-01T08:05:45.764Z,0.00
2022-12-01T08:06:45.874Z,0.00
2022-12-01T08:07:45.853Z,0.00
2022-12-01T08:08:45.717Z,1.00
2022-12-01T08:09:45.735Z,0.00
2022-12-01T08:10:45.838Z,1.00
2022-12-01T08:11:45.639Z,1.00
2022-12-01T08:12:45.751Z,0.00
2022-12-01T08:13:45.669Z,0.00
2022-12-01T08:14:45.695Z,1.00
2022-12-01T08:15:45.854Z,0.00
2022-12-01T08:16:45.742Z,0.00
2022-12-01T08:17:45.678Z,0.00
2022-12-01T08:18:45.550Z,1.00
2022-12-01T08:19:45.583Z,1.00
2022-12-01T08:20:46.479Z,1.00
2022-12-01T08:21:45.608Z,1.00
2022-12-01T08:22:45.501Z,1.00
2022-12-01T08:23:45.478Z,1.00
2022-12-01T08:24:45.518Z,1.00
2022-12-01T08:25:45.490Z,1.00
2022-12-01T08:26:45.602Z,1.00
2022-12-01T08:27:45.442Z,1.00
2022-12-01T08:28:45.561Z,1.00
2022-12-01T08:29:45.448Z,1.00
2022-12-01T08:30:45.629Z,0.00
2022-12-01T08:31:45.565Z,0.00
2022-12-01T08:32:45.595Z,0.00
2022-12-01T08:33:45.587Z,0.00
2022-12-01T08:34:49.338Z,0.00
2022-12-01T08:35:45.491Z,0.00
2022-12-01T08:36:45.400Z,2.00
2022-12-01T08:37:45.399Z,1.00
2022-12-01T08:38:45.478Z,1.00
2022-12-01T08:39:45.418Z,1.00
2022-12-01T08:40:45.330Z,1.00
2022-12-01T08:41:45.425Z,1.00
2022-12-01T08:42:45.437Z,0.00
2022-12-01T08:44:01.649Z,0.00
2022-12-01T08:44:46.244Z,0.00
2022-12-01T08:45:45.235Z,2.00
2022-12-01T08:46:45.386Z,1.00
2022-12-01T08:47:45.261Z,1.00
2022-12-01T08:48:45.278Z,1.00
2022-12-01T08:49:45.181Z,1.00
2022-12-01T08:50:45.910Z,2.00
2022-12-01T08:51:45.195Z,2.00
2022-12-01T08:52:45.296Z,2.00
2022-12-01T08:53:45.879Z,2.00
2022-12-01T08:54:45.206Z,2.00
2022-12-01T08:55:45.324Z,2.00
2022-12-01T08:56:45.229Z,2.00
2022-12-01T08:57:45.128Z,2.00
2022-12-01T08:58:47.894Z,2.00
2022-12-01T08:59:45.914Z,2.00
2022-12-01T09:00:45.103Z,2.00
2022-12-01T09:01:45.038Z,2.00
2022-12-01T09:02:45.034Z,2.00
2022-12-01T09:03:45.021Z,2.00
2022-12-01T09:04:45.024Z,2.00
2022-12-01T09:05:45.028Z,2.00
2022-12-01T09:06:44.960Z,1.00
2022-12-01T09:07:45.003Z,2.00
2022-12-01T09:08:45.090Z,4.00
2022-12-01T09:09:44.952Z,5.00
2022-12-01T09:10:45.119Z,2.00
2022-12-01T09:11:44.970Z,1.00
2022-12-01T09:12:44.982Z,2.00
2022-12-01T09:13:46.791Z,4.00
2022-12-01T09:14:44.891Z,3.00
2022-12-01T09:15:45.018Z,2.00
2022-12-01T09:16:45.007Z,2.00
2022-12-01T09:17:44.942Z,6.00
2022-12-01T09:18:44.843Z,5.00
2022-12-01T09:19:44.859Z,3.00
2022-12-01T09:20:44.966Z,3.00
2022-12-01T09:21:44.835Z,3.00
2022-12-01T09:22:44.871Z,4.00
2022-12-01T09:23:44.884Z,2.00
2022-12-01T09:24:44.772Z,3.00
2022-12-01T09:25:43.866Z,7.00
2022-12-01T09:26:44.798Z,6.00
2022-12-01T09:27:44.811Z,6.00
2022-12-01T09:28:44.808Z,6.00
2022-12-01T09:29:44.819Z,6.00
2022-12-01T09:30:44.831Z,5.00
2022-12-01T09:31:44.803Z,5.00
2022-12-01T09:32:44.753Z,7.00
2022-12-01T09:33:44.759Z,6.00
2022-12-01T09:34:44.751Z,5.00
2022-12-01T09:35:44.756Z,4.00
2022-12-01T09:36:45.270Z,3.00
2022-12-01T09:37:44.673Z,4.00
2022-12-01T09:38:44.669Z,5.00
2022-12-01T09:39:44.793Z,5.00
2022-12-01T09:40:44.704Z,9.00
2022-12-01T09:41:44.702Z,8.00
2022-12-01T09:42:44.709Z,8.00
2022-12-01T09:43:44.602Z,7.00
2022-12-01T09:44:44.614Z,9.00
2022-12-01T09:45:44.607Z,7.00
2022-12-01T09:46:44.691Z,10.00
2022-12-01T09:47:44.630Z,11.00
2022-12-01T09:48:44.627Z,9.00
2022-12-01T09:49:44.538Z,8.00
2022-12-01T09:50:44.553Z,12.00
2022-12-01T09:51:44.565Z,14.00
2022-12-01T09:52:44.564Z,13.00
2022-12-01T09:53:44.566Z,15.00
2022-12-01T09:54:44.565Z,15.00
2022-12-01T09:55:44.616Z,11.00
2022-12-01T09:56:44.484Z,13.00
2022-12-01T09:57:44.490Z,16.00
2022-12-01T09:58:44.513Z,17.00
2022-12-01T09:59:44.510Z,18.00
2022-12-01T10:00:44.590Z,14.00
2022-12-01T10:01:44.452Z,14.00
2022-12-01T10:02:44.417Z,14.00
2022-12-01T10:03:44.544Z,15.00
2022-12-01T10:04:44.438Z,12.00
2022-12-01T10:06:18.084Z,12.00
2022-12-01T10:06:44.452Z,10.00
2022-12-01T10:07:44.396Z,12.00
2022-12-01T10:08:44.440Z,12.00
2022-12-01T10:09:44.391Z,12.00
2022-12-01T10:10:45.203Z,8.00
2022-12-01T10:11:45.390Z,11.00
2022-12-01T10:12:44.386Z,14.00
2022-12-01T10:13:44.299Z,12.00
2022-12-01T10:14:44.395Z,11.00
2022-12-01T10:15:44.303Z,10.00
2022-12-01T10:16:44.390Z,15.00
2022-12-01T10:17:44.218Z,18.00
2022-12-01T10:18:44.327Z,18.00
2022-12-01T10:19:44.232Z,18.00
2022-12-01T10:20:44.352Z,18.00
2022-12-01T10:21:44.345Z,24.00
2022-12-01T10:22:44.260Z,28.00
2022-12-01T10:23:44.163Z,32.00
2022-12-01T10:24:44.764Z,33.00
2022-12-01T10:25:44.277Z,37.00
2022-12-01T10:26:44.178Z,45.00
2022-12-01T10:27:44.296Z,47.00
2022-12-01T10:28:44.198Z,48.00
2022-12-01T10:29:47.530Z,46.00
2022-12-01T10:30:44.413Z,48.00
2022-12-01T10:31:44.207Z,52.00
2022-12-01T10:32:44.208Z,54.00
2022-12-01T10:33:44.632Z,57.00
2022-12-01T10:34:44.129Z,55.00
2022-12-01T10:35:44.028Z,55.00
2022-12-01T10:36:44.143Z,58.00
2022-12-01T10:37:44.163Z,53.00
2022-12-01T10:38:44.059Z,49.00
2022-12-01T10:39:44.070Z,52.00
2022-12-01T10:40:44.068Z,49.00
2022-12-01T10:41:43.972Z,55.00
2022-12-01T10:42:43.981Z,59.00
2022-12-01T10:43:43.994Z,64.00
2022-12-01T10:44:44.711Z,65.00
2022-12-01T10:45:44.589Z,64.00
2022-12-01T10:46:43.998Z,65.00
2022-12-01T10:47:43.916Z,66.00
2022-12-01T10:48:44.227Z,61.00
2022-12-01T10:49:43.914Z,64.00
2022-12-01T10:50:43.928Z,61.00
2022-12-01T10:51:43.941Z,74.00
2022-12-01T10:52:44.294Z,76.00
2022-12-01T10:53:43.854Z,83.00
2022-12-01T10:54:43.965Z,83.00
2022-12-01T10:55:47.936Z,87.00
2022-12-01T10:56:43.968Z,89.00
2022-12-01T10:57:43.822Z,84.00
2022-12-01T10:58:43.826Z,80.00
2022-12-01T10:59:45.773Z,84.00
2022-12-01T11:00:59.198Z,87.00
2022-12-01T11:01:43.914Z,91.00
2022-12-01T11:02:43.914Z,95.00
2022-12-01T11:03:43.804Z,101.00
2022-12-01T11:04:43.721Z,101.00
2022-12-01T11:05:43.770Z,98.00
2022-12-01T11:06:43.683Z,107.00
2022-12-01T11:07:43.714Z,107.00
2022-12-01T11:08:43.700Z,105.00
2022-12-01T11:09:43.697Z,101.00
2022-12-01T11:10:43.649Z,98.00
2022-12-01T11:11:43.665Z,101.00
2022-12-01T11:12:43.727Z,67.00
2022-12-01T11:13:43.679Z,116.00
2022-12-01T11:14:43.583Z,152.00
2022-12-01T11:15:44.043Z,101.00
2022-12-01T11:16:43.705Z,152.00
2022-12-01T11:17:43.833Z,126.00
2022-12-01T11:18:43.717Z,127.00
2022-12-01T11:19:43.662Z,114.00
2022-12-01T11:20:43.655Z,118.00
2022-12-01T11:21:43.571Z,121.00
2022-12-01T11:22:43.570Z,121.00
2022-12-01T11:23:43.475Z,110.00
2022-12-01T11:24:43.599Z,112.00
2022-12-01T11:25:43.493Z,123.00
2022-12-01T11:26:44.010Z,117.00
2022-12-01T11:27:43.463Z,126.00
2022-12-01T11:28:43.780Z,122.00
2022-12-01T11:29:43.631Z,120.00
2022-12-01T11:30:43.564Z,119.00
2022-12-01T11:31:43.533Z,117.00
2022-12-01T11:32:43.436Z,122.00
2022-12-01T11:33:43.770Z,120.00
2022-12-01T11:34:43.465Z,124.00
2022-12-01T11:35:43.454Z,130.00
2022-12-01T11:36:43.465Z,136.00
2022-12-01T11:37:50.484Z,135.00
2022-12-01T11:38:43.372Z,121.00
2022-12-01T11:39:43.383Z,119.00
2022-12-01T11:40:43.389Z,125.00
2022-12-01T11:41:43.392Z,95.00
2022-12-01T11:42:43.948Z,132.00
2022-12-01T11:43:46.758Z,141.00
2022-12-01T11:44:51.306Z,237.00
2022-12-01T11:45:44.187Z,273.00
2022-12-01T11:46:50.278Z,295.00
2022-12-01T11:47:43.342Z,160.00
2022-12-01T11:48:43.343Z,229.00
2022-12-01T11:49:47.051Z,271.00
2022-12-01T11:50:43.252Z,173.00
2022-12-01T11:51:43.354Z,483.00
2022-12-01T11:52:43.261Z,477.00
2022-12-01T11:53:43.264Z,220.00
2022-12-01T11:54:43.562Z,279.00
2022-12-01T11:55:43.177Z,209.00
2022-12-01T11:56:43.287Z,201.00
2022-12-01T11:57:43.202Z,205.00
2022-12-01T11:58:43.278Z,210.00
2022-12-01T11:59:43.124Z,231.00
2022-12-01T12:00:43.928Z,234.00
2022-12-01T12:01:44.357Z,255.00
2022-12-01T12:02:43.229Z,246.00
2022-12-01T12:03:43.362Z,276.00
2022-12-01T12:04:43.863Z,287.00
2022-12-01T12:05:43.052Z,276.00
2022-12-01T12:06:43.068Z,259.00
2022-12-01T12:07:43.103Z,285.00
2022-12-01T12:08:43.062Z,269.00
2022-12-01T12:09:45.792Z,270.00
2022-12-01T12:10:43.240Z,256.00
2022-12-01T12:11:42.993Z,253.00
2022-12-01T12:12:43.092Z,234.00
2022-12-01T12:13:43.310Z,213.00
2022-12-01T12:14:43.111Z,263.00
2022-12-01T12:15:43.281Z,292.00
2022-12-01T12:16:43.018Z,296.00
2022-12-01T12:17:44.726Z,215.00
2022-12-01T12:18:44.457Z,271.00
2022-12-01T12:20:07.256Z,290.00
2022-12-01T12:20:42.945Z,269.00
2022-12-01T12:21:43.653Z,191.00
2022-12-01T12:22:42.951Z,387.00
2022-12-01T12:23:42.864Z,261.00
2022-12-01T12:24:44.513Z,970.00
2022-12-01T12:25:44.933Z,498.00
2022-12-01T12:26:43.799Z,271.00
2022-12-01T12:27:43.207Z,895.00
2022-12-01T12:28:43.824Z,449.00
2022-12-01T12:29:42.807Z,265.00
2022-12-01T12:30:43.962Z,782.00
2022-12-01T12:31:42.815Z,405.00
2022-12-01T12:32:43.558Z,1022.00
2022-12-01T12:33:43.543Z,681.00
2022-12-01T12:34:43.058Z,773.00
2022-12-01T12:35:43.259Z,334.00
2022-12-01T12:36:48.884Z,586.00
2022-12-01T12:37:42.967Z,294.00
2022-12-01T12:38:42.752Z,661.00
2022-12-01T12:39:43.072Z,848.00
2022-12-01T12:40:43.033Z,311.00
2022-12-01T12:41:42.728Z,689.00
2022-12-01T12:42:43.190Z,834.00
2022-12-01T12:43:43.610Z,659.00
2022-12-01T12:44:43.726Z,736.00
2022-12-01T12:45:42.703Z,681.00
2022-12-01T12:46:42.772Z,743.00
2022-12-01T12:47:42.603Z,938.00
2022-12-01T12:49:11.563Z,779.00
2022-12-01T12:49:43.543Z,435.00
2022-12-01T12:50:42.736Z,394.00
2022-12-01T12:51:42.647Z,375.00
2022-12-01T12:52:42.595Z,455.00
2022-12-01T12:53:43.447Z,627.00
2022-12-01T12:54:42.764Z,666.00
2022-12-01T12:55:45.129Z,624.00
2022-12-01T12:56:45.242Z,320.00
2022-12-01T12:57:42.579Z,192.00
2022-12-01T12:58:42.592Z,294.00
2022-12-01T12:59:43.107Z,409.00
2022-12-01T13:00:44.771Z,545.00
2022-12-01T13:01:43.409Z,565.00
2022-12-01T13:02:42.696Z,556.00
2022-12-01T13:03:42.625Z,615.00
2022-12-01T13:04:42.473Z,697.00
2022-12-01T13:05:42.477Z,623.00
2022-12-01T13:06:42.576Z,752.00
2022-12-01T13:07:43.466Z,717.00